createdAt,value
2017-05-29T00:00:35.471Z,16.97
2017-05-29T00:01:34.296Z,17
2017-05-29T00:02:34.200Z,17
2017-05-29T00:03:34.507Z,16.94
2017-05-29T00:04:34.516Z,16.94
2017-05-29T00:05:34.470Z,16.94
2017-05-29T00:06:34.518Z,16.94
2017-05-29T00:07:34.494Z,16.84
2017-05-29T00:08:34.551Z,16.82
2017-05-29T00:09:34.493Z,16.82
2017-05-29T00:10:33.845Z,16.84
2017-05-29T00:11:33.853Z,16.82
2017-05-29T00:12:34.178Z,16.82
2017-05-29T00:13:35.313Z,16.73
2017-05-29T00:14:34.487Z,16.72
2017-05-29T00:15:34.486Z,16.72
2017-05-29T00:16:34.468Z,16.7
2017-05-29T00:17:34.591Z,16.7
2017-05-29T00:18:34.146Z,16.66
2017-05-29T00:19:34.466Z,16.66
2017-05-29T00:20:35.607Z,16.72
2017-05-29T00:21:34.579Z,16.62
2017-05-29T00:22:33.831Z,16.51
2017-05-29T00:23:35.166Z,16.52
2017-05-29T00:24:34.129Z,16.54
2017-05-29T00:25:34.463Z,16.52
2017-05-29T00:26:34.123Z,16.47
2017-05-29T00:27:33.811Z,16.51
2017-05-29T00:28:34.891Z,16.54
2017-05-29T00:29:35.199Z,16.4
2017-05-29T00:30:35.203Z,16.37
2017-05-29T00:31:34.474Z,16.4
2017-05-29T00:32:33.789Z,16.3
2017-05-29T00:33:34.434Z,16.26
2017-05-29T00:34:34.125Z,16.21
2017-05-29T00:35:34.449Z,16.27
2017-05-29T00:36:34.865Z,16.36
2017-05-29T00:37:34.417Z,16.29
2017-05-29T00:38:34.848Z,16.25
2017-05-29T00:39:34.425Z,16.32
2017-05-29T00:40:34.411Z,16.25
2017-05-29T00:41:33.764Z,16.22
2017-05-29T00:42:34.163Z,16.16
2017-05-29T00:43:34.409Z,16.21
2017-05-29T00:44:35.497Z,16.16
2017-05-29T00:45:34.079Z,16.16
2017-05-29T00:46:34.073Z,16.18
2017-05-29T00:47:34.412Z,16.18
2017-05-29T00:48:33.742Z,16.11
2017-05-29T00:49:34.076Z,16.17
2017-05-29T00:50:34.382Z,16.1
2017-05-29T00:51:34.566Z,16.14
2017-05-29T00:52:34.054Z,16.13
2017-05-29T00:53:34.374Z,16.16
2017-05-29T00:54:34.069Z,16.02
2017-05-29T00:55:33.722Z,16.08
2017-05-29T00:56:35.127Z,16.06
2017-05-29T00:57:35.292Z,16.1
2017-05-29T00:58:34.459Z,16.1
2017-05-29T00:59:34.362Z,16
2017-05-29T01:00:34.030Z,16.06
2017-05-29T01:01:34.026Z,16.04
2017-05-29T01:02:34.024Z,16.06
2017-05-29T01:03:34.021Z,15.99
2017-05-29T01:04:34.704Z,16.06
2017-05-29T01:05:34.374Z,15.96
2017-05-29T01:06:34.021Z,15.92
2017-05-29T01:07:34.374Z,15.92
2017-05-29T01:08:34.124Z,15.95
2017-05-29T01:09:34.002Z,15.86
2017-05-29T01:10:34.011Z,15.95
2017-05-29T01:11:33.672Z,15.84
2017-05-29T01:12:33.995Z,15.84
2017-05-29T01:13:35.239Z,15.8
2017-05-29T01:14:33.986Z,15.84
2017-05-29T01:15:34.303Z,15.83
2017-05-29T01:16:33.979Z,15.73
2017-05-29T01:17:33.974Z,15.75
2017-05-29T01:18:34.214Z,15.74
2017-05-29T01:19:33.974Z,15.8
2017-05-29T01:20:33.970Z,15.74
2017-05-29T01:21:34.325Z,15.77
2017-05-29T01:22:34.951Z,15.73
2017-05-29T01:23:33.964Z,15.7
2017-05-29T01:24:34.286Z,15.73
2017-05-29T01:25:33.951Z,15.71
2017-05-29T01:26:34.286Z,15.74
2017-05-29T01:27:33.944Z,15.68
2017-05-29T01:28:34.261Z,15.73
2017-05-29T01:29:34.333Z,15.73
2017-05-29T01:30:34.698Z,15.62
2017-05-29T01:31:33.942Z,15.6
2017-05-29T01:32:34.954Z,15.63
2017-05-29T01:33:34.052Z,15.63
2017-05-29T01:34:34.246Z,15.68
2017-05-29T01:35:34.245Z,15.7
2017-05-29T01:36:33.917Z,15.56
2017-05-29T01:37:34.259Z,15.62
2017-05-29T01:38:33.617Z,15.62
2017-05-29T01:39:33.914Z,15.62
2017-05-29T01:40:34.189Z,15.63
2017-05-29T01:41:34.159Z,15.59
2017-05-29T01:42:33.912Z,15.55
2017-05-29T01:43:33.893Z,15.59
2017-05-29T01:44:34.215Z,15.51
2017-05-29T01:45:33.888Z,15.52
2017-05-29T01:46:34.872Z,15.49
2017-05-29T01:47:33.877Z,15.44
2017-05-29T01:48:34.208Z,15.44
2017-05-29T01:49:34.686Z,15.43
2017-05-29T01:50:35.128Z,15.43
2017-05-29T01:51:33.869Z,15.41
2017-05-29T01:52:33.541Z,15.44
2017-05-29T01:53:33.881Z,15.38
2017-05-29T01:54:33.552Z,15.43
2017-05-29T01:55:34.170Z,15.34
2017-05-29T01:56:35.192Z,15.31
2017-05-29T01:57:34.453Z,15.33
2017-05-29T01:58:33.838Z,15.27
2017-05-29T01:59:34.189Z,15.37
2017-05-29T02:00:33.835Z,15.37
2017-05-29T02:01:33.837Z,15.33
2017-05-29T02:02:33.830Z,15.33
2017-05-29T02:03:34.248Z,15.3
2017-05-29T02:04:34.964Z,15.3
2017-05-29T02:05:34.460Z,15.34
2017-05-29T02:06:34.150Z,15.3
2017-05-29T02:07:34.141Z,15.27
2017-05-29T02:08:33.826Z,15.31
2017-05-29T02:09:34.369Z,15.31
2017-05-29T02:10:33.476Z,15.18
2017-05-29T02:11:34.613Z,15.22
2017-05-29T02:12:34.555Z,15.22
2017-05-29T02:13:34.722Z,15.2
2017-05-29T02:14:33.783Z,15.25
2017-05-29T02:15:34.874Z,15.3
2017-05-29T02:16:34.096Z,15.19
2017-05-29T02:17:34.484Z,15.2
2017-05-29T02:18:34.100Z,15.25
2017-05-29T02:19:34.086Z,15.23
2017-05-29T02:20:34.093Z,15.2
2017-05-29T02:21:34.517Z,15.15
2017-05-29T02:22:33.887Z,15.08
2017-05-29T02:23:34.097Z,15.18
2017-05-29T02:24:33.746Z,15.12
2017-05-29T02:25:33.756Z,15.19
2017-05-29T02:26:34.069Z,15.08
2017-05-29T02:27:33.415Z,15.07
2017-05-29T02:28:34.508Z,15.05
2017-05-29T02:29:34.539Z,15.1
2017-05-29T02:30:34.572Z,15.05
2017-05-29T02:31:34.529Z,15.01
2017-05-29T02:32:34.040Z,15.04
2017-05-29T02:33:34.046Z,15.02
2017-05-29T02:34:33.725Z,15.08
2017-05-29T02:35:34.044Z,15.16
2017-05-29T02:36:33.647Z,15.1
2017-05-29T02:37:34.501Z,15.12
2017-05-29T02:38:33.797Z,15.15
2017-05-29T02:39:34.012Z,15.05
2017-05-29T02:40:33.371Z,15.19
2017-05-29T02:41:34.070Z,15.16
2017-05-29T02:42:34.449Z,15.2
2017-05-29T02:43:33.670Z,15.18
2017-05-29T02:44:33.669Z,15.2
2017-05-29T02:45:34.023Z,15.25
2017-05-29T02:46:33.681Z,15.25
2017-05-29T02:47:33.981Z,15.15
2017-05-29T02:48:33.975Z,15.25
2017-05-29T02:49:34.020Z,15.1
2017-05-29T02:50:33.981Z,15.12
2017-05-29T02:51:33.962Z,15.08
2017-05-29T02:52:33.638Z,15.12
2017-05-29T02:53:33.671Z,15.18
2017-05-29T02:54:33.956Z,15.1
2017-05-29T02:55:33.627Z,15.08
2017-05-29T02:56:33.945Z,15.08
2017-05-29T02:57:33.943Z,15.02
2017-05-29T02:58:33.299Z,15.05
2017-05-29T02:59:33.296Z,15.02
2017-05-29T03:00:33.606Z,15.04
2017-05-29T03:01:33.931Z,15.08
2017-05-29T03:02:33.936Z,15.12
2017-05-29T03:03:33.273Z,15.12
2017-05-29T03:04:33.917Z,15.22
2017-05-29T03:05:33.915Z,15.19
2017-05-29T03:06:33.905Z,15.19
2017-05-29T03:07:33.579Z,15.19
2017-05-29T03:08:33.579Z,15.22
2017-05-29T03:09:33.890Z,15.15
2017-05-29T03:10:33.576Z,15.12
2017-05-29T03:11:33.567Z,15.16
2017-05-29T03:12:33.884Z,15.13
2017-05-29T03:13:33.556Z,15.15
2017-05-29T03:14:33.550Z,15.15
2017-05-29T03:15:33.545Z,15.07
2017-05-29T03:16:33.875Z,15.13
2017-05-29T03:17:33.541Z,15.07
2017-05-29T03:18:33.859Z,15.05
2017-05-29T03:19:33.572Z,15.07
2017-05-29T03:20:33.530Z,15.12
2017-05-29T03:21:33.845Z,15.13
2017-05-29T03:22:33.838Z,15.05
2017-05-29T03:23:33.867Z,15.18
2017-05-29T03:24:33.834Z,15.2
2017-05-29T03:25:33.510Z,15.19
2017-05-29T03:26:33.180Z,15.22
2017-05-29T03:27:33.498Z,15.2
2017-05-29T03:28:33.817Z,15.13
2017-05-29T03:29:33.813Z,15.18
2017-05-29T03:30:33.814Z,15.2
2017-05-29T03:31:33.818Z,15.2
2017-05-29T03:32:33.489Z,15.23
2017-05-29T03:33:33.878Z,15.31
2017-05-29T03:34:33.798Z,15.44
2017-05-29T03:35:33.490Z,15.31
2017-05-29T03:36:33.799Z,15.34
2017-05-29T03:37:33.154Z,15.4
2017-05-29T03:38:33.463Z,15.45
2017-05-29T03:39:33.460Z,15.45
2017-05-29T03:40:33.448Z,15.41
2017-05-29T03:41:33.776Z,15.44
2017-05-29T03:42:33.773Z,15.52
2017-05-29T03:43:33.437Z,15.62
2017-05-29T03:44:33.770Z,15.58
2017-05-29T03:45:33.749Z,15.59
2017-05-29T03:46:33.772Z,15.7
2017-05-29T03:47:33.437Z,15.73
2017-05-29T03:48:33.430Z,15.75
2017-05-29T03:49:33.797Z,15.73
2017-05-29T03:50:33.760Z,15.8
2017-05-29T03:51:33.729Z,15.95
2017-05-29T03:52:33.402Z,15.83
2017-05-29T03:53:33.722Z,15.92
2017-05-29T03:54:33.078Z,16
2017-05-29T03:55:33.389Z,16.02
2017-05-29T03:56:33.414Z,16.08
2017-05-29T03:57:33.385Z,16.07
2017-05-29T03:58:33.705Z,16.08
2017-05-29T03:59:33.713Z,16.17
2017-05-29T04:00:33.708Z,16.26
2017-05-29T04:01:33.045Z,16.17
2017-05-29T04:02:33.694Z,16.26
2017-05-29T04:03:33.692Z,16.29
2017-05-29T04:04:33.366Z,16.27
2017-05-29T04:05:33.356Z,16.32
2017-05-29T04:06:33.689Z,16.36
2017-05-29T04:07:33.023Z,16.29
2017-05-29T04:08:33.673Z,16.34
2017-05-29T04:09:33.680Z,16.39
2017-05-29T04:10:33.658Z,16.47
2017-05-29T04:11:33.350Z,16.48
2017-05-29T04:12:33.331Z,16.49
2017-05-29T04:13:33.666Z,16.57
2017-05-29T04:14:33.644Z,16.57
2017-05-29T04:15:33.326Z,16.59
2017-05-29T04:16:33.320Z,16.67
2017-05-29T04:17:33.635Z,16.69
2017-05-29T04:18:33.321Z,16.7
2017-05-29T04:19:33.630Z,16.67
2017-05-29T04:20:33.628Z,16.69
2017-05-29T04:21:33.317Z,16.73
2017-05-29T04:22:32.977Z,16.76
2017-05-29T04:23:33.294Z,16.76
2017-05-29T04:24:33.295Z,16.77
2017-05-29T04:25:33.288Z,16.8
2017-05-29T04:26:33.298Z,16.76
2017-05-29T04:27:33.282Z,16.85
2017-05-29T04:28:33.635Z,16.81
2017-05-29T04:29:33.278Z,16.87
2017-05-29T04:30:33.627Z,16.85
2017-05-29T04:31:33.601Z,16.9
2017-05-29T04:32:33.590Z,17.02
2017-05-29T04:33:33.611Z,16.94
2017-05-29T04:34:33.267Z,17.03
2017-05-29T04:35:33.593Z,16.97
2017-05-29T04:36:33.262Z,17.07
2017-05-29T04:37:33.256Z,17.06
2017-05-29T04:38:33.575Z,17.06
2017-05-29T04:39:33.251Z,17
2017-05-29T04:40:33.246Z,17.1
2017-05-29T04:41:33.566Z,17.02
2017-05-29T04:42:33.236Z,17.02
2017-05-29T04:43:33.569Z,17.12
2017-05-29T04:44:33.564Z,17.05
2017-05-29T04:45:33.239Z,17.09
2017-05-29T04:46:32.906Z,17.2
2017-05-29T04:47:33.322Z,17.18
2017-05-29T04:48:32.907Z,17.25
2017-05-29T04:49:33.243Z,17.25
2017-05-29T04:50:33.217Z,17.21
2017-05-29T04:51:33.556Z,17.3
2017-05-29T04:52:33.212Z,17.3
2017-05-29T04:53:33.209Z,17.46
2017-05-29T04:54:32.888Z,17.57
2017-05-29T04:55:33.525Z,17.49
2017-05-29T04:56:33.532Z,17.52
2017-05-29T04:57:32.879Z,17.52
2017-05-29T04:58:33.201Z,17.66
2017-05-29T04:59:33.217Z,17.83
2017-05-29T05:00:32.873Z,17.86
2017-05-29T05:01:33.533Z,17.96
2017-05-29T05:02:33.513Z,17.96
2017-05-29T05:03:33.530Z,17.99
2017-05-29T05:04:33.505Z,17.99
2017-05-29T05:05:33.505Z,18.03
2017-05-29T05:06:33.190Z,18.2
2017-05-29T05:07:32.876Z,18.29
2017-05-29T05:08:33.496Z,18.29
2017-05-29T05:09:33.191Z,18.29
2017-05-29T05:10:33.197Z,18.38
2017-05-29T05:11:33.170Z,18.47
2017-05-29T05:12:33.170Z,18.54
2017-05-29T05:13:32.849Z,18.63
2017-05-29T05:14:33.165Z,18.6
2017-05-29T05:15:33.192Z,18.59
2017-05-29T05:16:33.163Z,18.69
2017-05-29T05:17:33.161Z,18.81
2017-05-29T05:18:33.172Z,18.75
2017-05-29T05:19:33.165Z,18.78
2017-05-29T05:20:32.874Z,18.9
2017-05-29T05:21:33.153Z,18.97
2017-05-29T05:22:33.472Z,19.05
2017-05-29T05:23:33.480Z,19.2
2017-05-29T05:24:33.149Z,19.16
2017-05-29T05:25:33.147Z,19.24
2017-05-29T05:26:33.157Z,19.31
2017-05-29T05:27:33.347Z,19.45
2017-05-29T05:28:32.821Z,19.6
2017-05-29T05:29:33.484Z,19.6
2017-05-29T05:30:33.150Z,19.71
2017-05-29T05:31:33.463Z,19.7
2017-05-29T05:32:32.816Z,19.79
2017-05-29T05:33:33.462Z,19.85
2017-05-29T05:34:33.458Z,20.01
2017-05-29T05:35:33.475Z,20.04
2017-05-29T05:36:32.811Z,20.1
2017-05-29T05:37:33.157Z,20.16
2017-05-29T05:38:33.131Z,20.25
2017-05-29T05:39:33.475Z,20.26
2017-05-29T05:40:32.820Z,20.37
2017-05-29T05:41:33.452Z,20.38
2017-05-29T05:42:33.453Z,20.26
2017-05-29T05:43:33.169Z,20.37
2017-05-29T05:44:32.804Z,20.26
2017-05-29T05:45:33.456Z,20.42
2017-05-29T05:46:32.820Z,20.46
2017-05-29T05:47:33.153Z,20.46
2017-05-29T05:48:33.458Z,20.64
2017-05-29T05:49:33.451Z,20.67
2017-05-29T05:50:33.450Z,20.79
2017-05-29T05:51:33.461Z,20.88
2017-05-29T05:52:33.732Z,20.96
2017-05-29T05:53:32.805Z,21.09
2017-05-29T05:54:33.128Z,21.16
2017-05-29T05:55:33.446Z,21.23
2017-05-29T05:56:33.124Z,21.28
2017-05-29T05:57:33.126Z,21.41
2017-05-29T05:58:33.452Z,21.4
2017-05-29T05:59:33.462Z,21.52
2017-05-29T06:00:33.463Z,21.58
2017-05-29T06:01:33.126Z,21.56
2017-05-29T06:02:33.446Z,21.64
2017-05-29T06:03:33.484Z,21.66
2017-05-29T06:04:33.126Z,21.74
2017-05-29T06:05:32.805Z,21.82
2017-05-29T06:06:33.128Z,21.8
2017-05-29T06:07:33.126Z,21.83
2017-05-29T06:08:33.451Z,21.9
2017-05-29T06:09:33.476Z,21.99
2017-05-29T06:10:33.450Z,21.94
2017-05-29T06:11:33.453Z,22.07
2017-05-29T06:12:33.130Z,22
2017-05-29T06:13:33.139Z,22.05
2017-05-29T06:14:32.826Z,22.16
2017-05-29T06:15:33.454Z,22.24
2017-05-29T06:16:33.476Z,22.2
2017-05-29T06:17:33.132Z,22.24
2017-05-29T06:18:33.488Z,22.34
2017-05-29T06:19:33.138Z,22.31
2017-05-29T06:20:33.485Z,22.38
2017-05-29T06:21:33.153Z,22.3
2017-05-29T06:22:33.497Z,22.33
2017-05-29T06:23:33.143Z,22.29
2017-05-29T06:24:33.460Z,22.41
2017-05-29T06:25:33.145Z,22.44
2017-05-29T06:26:33.158Z,22.39
2017-05-29T06:27:33.467Z,22.51
2017-05-29T06:28:33.495Z,22.48
2017-05-29T06:29:33.487Z,22.57
2017-05-29T06:30:33.470Z,22.63
2017-05-29T06:31:32.827Z,22.67
2017-05-29T06:32:33.150Z,22.78
2017-05-29T06:33:33.176Z,22.79
2017-05-29T06:34:33.483Z,22.96
2017-05-29T06:35:33.498Z,23.1
2017-05-29T06:36:33.481Z,23.26
2017-05-29T06:37:33.504Z,23.66
2017-05-29T06:38:33.178Z,23.96
2017-05-29T06:39:33.177Z,24.24
2017-05-29T06:40:33.168Z,24.56
2017-05-29T06:41:33.499Z,24.96
2017-05-29T06:42:33.198Z,25.33
2017-05-29T06:43:32.846Z,25.88
2017-05-29T06:44:33.495Z,26.54
2017-05-29T06:45:33.495Z,26.96
2017-05-29T06:46:33.500Z,27.36
2017-05-29T06:47:32.859Z,27.68
2017-05-29T06:48:33.552Z,27.89
2017-05-29T06:49:33.209Z,28.16
2017-05-29T06:50:33.195Z,28.21
2017-05-29T06:51:33.517Z,28.35
2017-05-29T06:52:33.535Z,28.53
2017-05-29T06:53:33.200Z,28.9
2017-05-29T06:54:33.528Z,29.32
2017-05-29T06:55:33.531Z,29.7
2017-05-29T06:56:32.896Z,30.02
2017-05-29T06:57:33.562Z,30.4
2017-05-29T06:58:33.550Z,30.73
2017-05-29T06:59:33.228Z,31.08
2017-05-29T07:00:33.259Z,31.37
2017-05-29T07:01:33.266Z,31.65
2017-05-29T07:02:33.263Z,31.87
2017-05-29T07:03:33.256Z,32
2017-05-29T07:04:33.273Z,32.23
2017-05-29T07:05:33.592Z,32.3
2017-05-29T07:06:33.622Z,32.24
2017-05-29T07:07:33.612Z,32.37
2017-05-29T07:08:33.614Z,32.62
2017-05-29T07:09:33.298Z,32.74
2017-05-29T07:10:33.503Z,33.08
2017-05-29T07:11:33.635Z,33.31
2017-05-29T07:12:33.649Z,33.52
2017-05-29T07:13:33.661Z,33.8
2017-05-29T07:14:33.333Z,34.11
2017-05-29T07:15:33.673Z,34.3
2017-05-29T07:16:33.354Z,34.36
2017-05-29T07:17:33.679Z,34.51
2017-05-29T07:18:33.695Z,34.72
2017-05-29T07:19:33.069Z,34.72
2017-05-29T07:20:33.395Z,34.59
2017-05-29T07:21:33.421Z,34.72
2017-05-29T07:22:33.730Z,34.61
2017-05-29T07:23:33.747Z,34.72
2017-05-29T07:24:33.429Z,34.79
2017-05-29T07:25:33.480Z,34.9
2017-05-29T07:26:33.447Z,34.93
2017-05-29T07:27:33.458Z,34.93
2017-05-29T07:28:33.469Z,34.78
2017-05-29T07:29:33.801Z,34.93
2017-05-29T07:30:33.489Z,34.74
2017-05-29T07:31:33.825Z,34.67
2017-05-29T07:32:33.843Z,34.9
2017-05-29T07:33:33.843Z,34.93
2017-05-29T07:34:33.527Z,35.18
2017-05-29T07:35:33.861Z,35.31
2017-05-29T07:36:33.548Z,35.33
2017-05-29T07:37:33.881Z,35.27
2017-05-29T07:38:33.890Z,35.38
2017-05-29T07:39:33.619Z,35.28
2017-05-29T07:40:33.761Z,34.99
2017-05-29T07:41:33.610Z,34.67
2017-05-29T07:42:33.938Z,34.69
2017-05-29T07:43:33.946Z,34.67
2017-05-29T07:44:33.631Z,34.72
2017-05-29T07:45:33.962Z,34.69
2017-05-29T07:46:33.333Z,34.48
2017-05-29T07:47:34.003Z,34.21
2017-05-29T07:48:33.700Z,33.93
2017-05-29T07:49:34.009Z,33.68
2017-05-29T07:50:34.019Z,33.41
2017-05-29T07:51:33.705Z,33.18
2017-05-29T07:52:33.723Z,32.94
2017-05-29T07:53:34.053Z,32.94
2017-05-29T07:54:34.079Z,32.81
2017-05-29T07:55:33.745Z,32.74
2017-05-29T07:56:33.773Z,32.5
2017-05-29T07:57:34.124Z,32.43
2017-05-29T07:58:33.781Z,32.25
2017-05-29T07:59:34.102Z,32.06
2017-05-29T08:00:34.127Z,31.87
2017-05-29T08:01:33.825Z,31.94
2017-05-29T08:02:34.158Z,31.94
2017-05-29T08:03:33.837Z,31.82
2017-05-29T08:04:33.843Z,31.71
2017-05-29T08:05:34.177Z,31.78
2017-05-29T08:06:33.864Z,31.87
2017-05-29T08:07:33.853Z,31.87
2017-05-29T08:08:34.188Z,32
2017-05-29T08:09:33.868Z,32.24
2017-05-29T08:10:34.201Z,32.49
2017-05-29T08:11:33.887Z,32.62
2017-05-29T08:12:34.228Z,32.61
2017-05-29T08:13:33.923Z,32.5
2017-05-29T08:14:33.911Z,32.47
2017-05-29T08:15:33.924Z,32.23
2017-05-29T08:16:34.307Z,32.08
2017-05-29T08:17:34.334Z,31.8
2017-05-29T08:18:34.267Z,31.67
2017-05-29T08:19:33.628Z,31.33
2017-05-29T08:20:34.279Z,31.21
2017-05-29T08:21:34.283Z,31.07
2017-05-29T08:22:33.651Z,31.04
2017-05-29T08:23:34.324Z,31.04
2017-05-29T08:24:33.989Z,31.01
2017-05-29T08:25:34.325Z,31.1
2017-05-29T08:26:34.008Z,31.26
2017-05-29T08:27:33.696Z,31.37
2017-05-29T08:28:33.696Z,31.37
2017-05-29T08:29:34.028Z,31.28
2017-05-29T08:30:34.037Z,31.06
2017-05-29T08:31:34.367Z,31.08
2017-05-29T08:32:33.731Z,30.99
2017-05-29T08:33:34.071Z,30.85
2017-05-29T08:34:34.065Z,30.66
2017-05-29T08:35:34.400Z,30.45
2017-05-29T08:36:34.403Z,30.19
2017-05-29T08:37:33.767Z,30.07
2017-05-29T08:38:34.442Z,30.03
2017-05-29T08:39:34.450Z,29.97
2017-05-29T08:40:34.461Z,29.88
2017-05-29T08:41:34.127Z,29.76
2017-05-29T08:42:34.130Z,29.72
2017-05-29T08:43:34.459Z,29.75
2017-05-29T08:44:34.468Z,29.66
2017-05-29T08:45:34.482Z,29.57
2017-05-29T08:46:34.495Z,29.57
2017-05-29T08:47:34.499Z,29.61
2017-05-29T08:48:34.518Z,29.66
2017-05-29T08:49:34.187Z,29.75
2017-05-29T08:50:34.195Z,29.88
2017-05-29T08:51:34.526Z,30
2017-05-29T08:52:34.209Z,30.11
2017-05-29T08:53:34.537Z,30.13
2017-05-29T08:54:34.542Z,30.13
2017-05-29T08:55:33.923Z,30.03
2017-05-29T08:56:34.239Z,30.03
2017-05-29T08:57:34.254Z,29.92
2017-05-29T08:58:34.585Z,29.89
2017-05-29T08:59:34.583Z,29.81
2017-05-29T09:00:34.618Z,29.79
2017-05-29T09:01:34.281Z,29.76
2017-05-29T09:02:34.294Z,29.79
2017-05-29T09:03:34.292Z,29.85
2017-05-29T09:04:34.295Z,29.88
2017-05-29T09:05:34.302Z,29.89
2017-05-29T09:06:34.311Z,29.84
2017-05-29T09:07:34.321Z,29.77
2017-05-29T09:08:34.651Z,29.67
2017-05-29T09:09:34.012Z,29.66
2017-05-29T09:10:34.338Z,29.66
2017-05-29T09:11:34.668Z,29.66
2017-05-29T09:12:34.355Z,29.52
2017-05-29T09:13:34.684Z,29.29
2017-05-29T09:14:34.365Z,29.08
2017-05-29T09:15:34.698Z,29.06
2017-05-29T09:16:34.701Z,29.05
2017-05-29T09:17:34.394Z,29.02
2017-05-29T09:18:34.714Z,29.05
2017-05-29T09:19:34.400Z,29.1
2017-05-29T09:20:34.085Z,29.06
2017-05-29T09:21:34.093Z,29.06
2017-05-29T09:22:34.425Z,29.21
2017-05-29T09:23:34.431Z,29.32
2017-05-29T09:24:34.435Z,29.33
2017-05-29T09:25:34.120Z,29.26
2017-05-29T09:26:34.451Z,29.32
2017-05-29T09:27:34.473Z,29.33
2017-05-29T09:28:34.476Z,29.32
2017-05-29T09:29:34.465Z,29.38
2017-05-29T09:30:34.477Z,29.35
2017-05-29T09:31:34.802Z,29.39
2017-05-29T09:32:34.813Z,29.39
2017-05-29T09:33:34.491Z,29.45
2017-05-29T09:34:34.177Z,29.57
2017-05-29T09:35:34.831Z,29.61
2017-05-29T09:36:34.832Z,29.66
2017-05-29T09:37:34.521Z,29.63
2017-05-29T09:38:34.527Z,29.61
2017-05-29T09:39:34.859Z,29.77
2017-05-29T09:40:34.863Z,29.92
2017-05-29T09:41:34.866Z,29.87
2017-05-29T09:42:34.874Z,29.91
2017-05-29T09:43:34.562Z,29.76
2017-05-29T09:44:34.565Z,29.69
2017-05-29T09:45:34.893Z,29.72
2017-05-29T09:46:34.594Z,29.81
2017-05-29T09:47:34.912Z,29.87
2017-05-29T09:48:34.997Z,29.98
2017-05-29T09:49:34.948Z,30.02
2017-05-29T09:50:34.623Z,30.21
2017-05-29T09:51:34.944Z,30.24
2017-05-29T09:52:34.971Z,30.37
2017-05-29T09:53:34.967Z,30.35
2017-05-29T09:54:34.634Z,30.28
2017-05-29T09:55:34.655Z,30.35
2017-05-29T09:56:34.324Z,30.34
2017-05-29T09:57:34.979Z,30.34
2017-05-29T09:58:34.668Z,30.42
2017-05-29T09:59:34.682Z,30.22
2017-05-29T10:00:34.996Z,30.34
2017-05-29T10:01:34.717Z,30.24
2017-05-29T10:02:35.027Z,30.16
2017-05-29T10:03:34.440Z,30.19
2017-05-29T10:04:35.038Z,30.14
2017-05-29T10:05:34.391Z,30.22
2017-05-29T10:06:34.404Z,30.1
2017-05-29T10:07:34.730Z,29.97
2017-05-29T10:08:34.418Z,29.89
2017-05-29T10:09:34.737Z,29.76
2017-05-29T10:10:34.748Z,29.65
2017-05-29T10:11:34.754Z,29.4
2017-05-29T10:12:34.443Z,29.29
2017-05-29T10:13:34.777Z,29.1
2017-05-29T10:14:35.095Z,29.08
2017-05-29T10:15:35.168Z,29.1
2017-05-29T10:16:34.798Z,29.14
2017-05-29T10:17:35.116Z,29.08
2017-05-29T10:18:35.119Z,29.11
2017-05-29T10:19:34.806Z,28.98
2017-05-29T10:20:35.136Z,28.83
2017-05-29T10:21:35.141Z,28.75
2017-05-29T10:22:35.148Z,28.76
2017-05-29T10:23:34.832Z,28.79
2017-05-29T10:24:35.163Z,28.78
2017-05-29T10:25:34.526Z,28.78
2017-05-29T10:26:35.176Z,28.78
2017-05-29T10:27:34.862Z,28.78
2017-05-29T10:28:35.206Z,28.79
2017-05-29T10:29:34.887Z,28.67
2017-05-29T10:30:35.196Z,28.67
2017-05-29T10:31:35.206Z,28.65
2017-05-29T10:32:35.219Z,28.68
2017-05-29T10:33:34.901Z,28.67
2017-05-29T10:34:34.910Z,28.55
2017-05-29T10:35:34.947Z,28.55
2017-05-29T10:36:35.267Z,28.54
2017-05-29T10:37:35.248Z,28.65
2017-05-29T10:38:35.248Z,28.65
2017-05-29T10:39:34.954Z,28.68
2017-05-29T10:40:35.014Z,28.64
2017-05-29T10:41:34.958Z,28.57
2017-05-29T10:42:34.941Z,28.54
2017-05-29T10:43:35.275Z,28.51
2017-05-29T10:44:35.281Z,28.51
2017-05-29T10:45:35.289Z,28.51
2017-05-29T10:46:35.293Z,28.48
2017-05-29T10:47:35.318Z,28.49
2017-05-29T10:48:35.349Z,28.48
2017-05-29T10:49:34.662Z,28.58
2017-05-29T10:50:35.010Z,28.54
2017-05-29T10:51:35.315Z,28.53
2017-05-29T10:52:34.998Z,28.61
2017-05-29T10:53:35.453Z,28.57
2017-05-29T10:54:35.360Z,28.68
2017-05-29T10:55:34.692Z,28.72
2017-05-29T10:56:35.021Z,28.76
2017-05-29T10:57:34.707Z,28.8
2017-05-29T10:58:35.352Z,28.92
2017-05-29T10:59:35.358Z,28.95
2017-05-29T11:00:35.373Z,28.88
2017-05-29T11:01:35.046Z,28.91
2017-05-29T11:02:35.401Z,28.86
2017-05-29T11:03:34.737Z,28.9
2017-05-29T11:04:35.086Z,28.88
2017-05-29T11:05:35.092Z,28.82
2017-05-29T11:06:35.082Z,28.85
2017-05-29T11:07:35.410Z,28.83
2017-05-29T11:08:35.431Z,28.88
2017-05-29T11:09:35.432Z,28.94
2017-05-29T11:10:35.118Z,28.9
2017-05-29T11:11:35.429Z,28.91
2017-05-29T11:12:35.431Z,28.83
2017-05-29T11:13:35.115Z,28.64
2017-05-29T11:14:35.123Z,28.72
2017-05-29T11:15:35.452Z,28.78
2017-05-29T11:16:34.831Z,28.78
2017-05-29T11:17:35.482Z,28.85
2017-05-29T11:18:34.829Z,28.91
2017-05-29T11:19:35.486Z,28.91
2017-05-29T11:20:35.164Z,28.94
2017-05-29T11:21:35.528Z,28.86
2017-05-29T11:22:35.172Z,28.9
2017-05-29T11:23:34.861Z,28.94
2017-05-29T11:24:35.182Z,28.92
2017-05-29T11:25:35.507Z,28.92
2017-05-29T11:26:35.241Z,28.9
2017-05-29T11:27:35.204Z,29.03
2017-05-29T11:28:34.880Z,29.06
2017-05-29T11:29:35.212Z,29.15
2017-05-29T11:30:35.602Z,29.32
2017-05-29T11:31:35.219Z,29.35
2017-05-29T11:32:35.240Z,29.21
2017-05-29T11:33:35.552Z,29.29
2017-05-29T11:34:35.553Z,29.3
2017-05-29T11:35:34.945Z,29.35
2017-05-29T11:36:35.607Z,29.33
2017-05-29T11:37:35.578Z,29.32
2017-05-29T11:38:35.585Z,29.35
2017-05-29T11:39:35.266Z,29.39
2017-05-29T11:40:34.973Z,29.42
2017-05-29T11:41:35.277Z,29.3
2017-05-29T11:42:35.284Z,29.32
2017-05-29T11:43:35.293Z,29.3
2017-05-29T11:44:34.981Z,29.28
2017-05-29T11:45:35.654Z,29.14
2017-05-29T11:46:35.310Z,29.03
2017-05-29T11:47:35.314Z,28.94
2017-05-29T11:48:35.324Z,28.92
2017-05-29T11:49:35.676Z,29.02
2017-05-29T11:50:35.333Z,28.92
2017-05-29T11:51:35.673Z,29.06
2017-05-29T11:52:35.675Z,29.14
2017-05-29T11:53:35.365Z,29.26
2017-05-29T11:54:35.377Z,29.26
2017-05-29T11:55:35.681Z,29.23
2017-05-29T11:56:35.689Z,29.26
2017-05-29T11:57:35.380Z,29.33
2017-05-29T11:58:35.382Z,29.36
2017-05-29T11:59:35.420Z,29.4
2017-05-29T12:00:35.392Z,29.35
2017-05-29T12:01:35.403Z,29.3
2017-05-29T12:02:35.729Z,29.32
2017-05-29T12:03:35.754Z,29.32
2017-05-29T12:04:35.102Z,29.39
2017-05-29T12:05:35.748Z,29.38
2017-05-29T12:06:35.754Z,29.32
2017-05-29T12:07:35.138Z,29.33
2017-05-29T12:08:35.763Z,29.26
2017-05-29T12:09:35.463Z,29.11
2017-05-29T12:10:35.779Z,29.06
2017-05-29T12:11:35.506Z,29.11
2017-05-29T12:12:35.465Z,29.11
2017-05-29T12:13:35.168Z,29.15
2017-05-29T12:14:35.812Z,29.08
2017-05-29T12:15:35.489Z,29.14
2017-05-29T12:16:35.810Z,29.29
2017-05-29T12:17:35.497Z,29.26
2017-05-29T12:18:35.831Z,29.21
2017-05-29T12:19:35.515Z,29.21
2017-05-29T12:20:35.525Z,29.33
2017-05-29T12:21:35.524Z,29.33
2017-05-29T12:22:35.872Z,29.4
2017-05-29T12:23:35.892Z,29.43
2017-05-29T12:24:35.226Z,29.35
2017-05-29T12:25:35.551Z,29.35
2017-05-29T12:26:35.555Z,29.39
2017-05-29T12:27:35.604Z,29.38
2017-05-29T12:28:35.255Z,29.42
2017-05-29T12:29:35.918Z,29.5
2017-05-29T12:30:35.929Z,29.5
2017-05-29T12:31:35.932Z,29.43
2017-05-29T12:32:35.601Z,29.45
2017-05-29T12:33:35.934Z,29.4
2017-05-29T12:34:35.603Z,29.43
2017-05-29T12:35:35.291Z,29.47
2017-05-29T12:36:35.616Z,29.45
2017-05-29T12:37:35.670Z,29.47
2017-05-29T12:38:35.635Z,29.47
2017-05-29T12:39:35.968Z,29.39
2017-05-29T12:40:35.998Z,29.54
2017-05-29T12:41:35.980Z,29.54
2017-05-29T12:42:35.333Z,29.51
2017-05-29T12:43:35.336Z,29.5
2017-05-29T12:44:35.987Z,29.51
2017-05-29T12:45:35.994Z,29.54
2017-05-29T12:46:36.022Z,29.43
2017-05-29T12:47:36.027Z,29.54
2017-05-29T12:48:35.689Z,29.61
2017-05-29T12:49:35.381Z,29.6
2017-05-29T12:50:35.504Z,29.58
2017-05-29T12:51:35.721Z,29.52
2017-05-29T12:52:35.729Z,29.6
2017-05-29T12:53:35.742Z,29.42
2017-05-29T12:54:36.081Z,29.5
2017-05-29T12:55:35.780Z,29.45
2017-05-29T12:56:36.092Z,29.36